sensor_id;sensor_type;location;lat;lon;timestamp;P1;durP1;ratioP1;P2;durP2;ratioP2
78589;SDS011;67888;50.228;7.828;2023-02-26T00:04:24;15.50;;;5.00;;
78589;SDS011;67888;50.228;7.828;2023-02-26T00:09:25;14.70;;;4.87;;
78589;SDS011;67888;50.228;7.828;2023-02-26T00:14:26;11.02;;;4.22;;
78589;SDS011;67888;50.228;7.828;2023-02-26T00:19:27;11.15;;;3.67;;
78589;SDS011;67888;50.228;7.828;2023-02-26T00:24:28;23.70;;;7.93;;
78589;SDS011;67888;50.228;7.828;2023-02-26T00:29:29;26.92;;;9.20;;
78589;SDS011;67888;50.228;7.828;2023-02-26T00:34:30;21.37;;;7.60;;
78589;SDS011;67888;50.228;7.828;2023-02-26T00:39:36;22.75;;;9.60;;
78589;SDS011;67888;50.228;7.828;2023-02-26T00:44:39;14.03;;;5.60;;
78589;SDS011;67888;50.228;7.828;2023-02-26T00:49:54;13.52;;;5.38;;
78589;SDS011;67888;50.228;7.828;2023-02-26T00:55:00;10.43;;;4.65;;
78589;SDS011;67888;50.228;7.828;2023-02-26T01:00:02;12.53;;;4.20;;
78589;SDS011;67888;50.228;7.828;2023-02-26T01:05:07;10.50;;;3.97;;
78589;SDS011;67888;50.228;7.828;2023-02-26T01:10:08;10.57;;;3.80;;
78589;SDS011;67888;50.228;7.828;2023-02-26T01:15:10;10.02;;;3.10;;
78589;SDS011;67888;50.228;7.828;2023-02-26T01:20:14;8.97;;;3.73;;
78589;SDS011;67888;50.228;7.828;2023-02-26T01:30:24;9.23;;;3.57;;
78589;SDS011;67888;50.228;7.828;2023-02-26T01:40:45;11.02;;;3.53;;
78589;SDS011;67888;50.228;7.828;2023-02-26T02:02:06;8.20;;;3.37;;
78589;SDS011;67888;50.228;7.828;2023-02-26T02:07:09;9.17;;;3.30;;
78589;SDS011;67888;50.228;7.828;2023-02-26T02:23:14;7.63;;;1.97;;
78589;SDS011;67888;50.228;7.828;2023-02-26T02:28:41;7.13;;;2.08;;
78589;SDS011;67888;50.228;7.828;2023-02-26T02:39:50;5.43;;;1.60;;
78589;SDS011;67888;50.228;7.828;2023-02-26T02:45:13;5.80;;;1.40;;
78589;SDS011;67888;50.228;7.828;2023-02-26T02:50:29;4.15;;;1.60;;
78589;SDS011;67888;50.228;7.828;2023-02-26T02:55:37;5.27;;;1.60;;
78589;SDS011;67888;50.228;7.828;2023-02-26T03:00:42;3.17;;;1.20;;
78589;SDS011;67888;50.228;7.828;2023-02-26T03:05:47;4.60;;;1.38;;
78589;SDS011;67888;50.228;7.828;2023-02-26T03:10:48;4.33;;;1.63;;
78589;SDS011;67888;50.228;7.828;2023-02-26T03:16:05;5.53;;;1.30;;
78589;SDS011;67888;50.228;7.828;2023-02-26T03:26:49;4.53;;;1.30;;
78589;SDS011;67888;50.228;7.828;2023-02-26T03:31:55;5.55;;;1.30;;
78589;SDS011;67888;50.228;7.828;2023-02-26T03:37:06;3.80;;;1.07;;
78589;SDS011;67888;50.228;7.828;2023-02-26T03:42:22;3.00;;;1.30;;
78589;SDS011;67888;50.228;7.828;2023-02-26T03:47:27;4.05;;;1.30;;
78589;SDS011;67888;50.228;7.828;2023-02-26T03:52:31;5.93;;;1.30;;
78589;SDS011;67888;50.228;7.828;2023-02-26T03:57:34;3.37;;;1.23;;
78589;SDS011;67888;50.228;7.828;2023-02-26T04:02:37;3.37;;;1.53;;
78589;SDS011;67888;50.228;7.828;2023-02-26T04:07:39;4.55;;;1.40;;
78589;SDS011;67888;50.228;7.828;2023-02-26T04:12:41;5.03;;;1.30;;
78589;SDS011;67888;50.228;7.828;2023-02-26T04:17:41;4.97;;;1.50;;
78589;SDS011;67888;50.228;7.828;2023-02-26T04:22:42;3.63;;;1.20;;
78589;SDS011;67888;50.228;7.828;2023-02-26T04:27:42;6.03;;;1.40;;
78589;SDS011;67888;50.228;7.828;2023-02-26T04:32:43;4.23;;;1.70;;
78589;SDS011;67888;50.228;7.828;2023-02-26T04:37:43;5.53;;;1.70;;
78589;SDS011;67888;50.228;7.828;2023-02-26T04:42:44;3.57;;;1.43;;
78589;SDS011;67888;50.228;7.828;2023-02-26T04:47:44;4.87;;;1.77;;
78589;SDS011;67888;50.228;7.828;2023-02-26T04:52:45;6.10;;;1.70;;
78589;SDS011;67888;50.228;7.828;2023-02-26T04:57:45;4.20;;;1.77;;
78589;SDS011;67888;50.228;7.828;2023-02-26T05:02:45;5.73;;;2.10;;
78589;SDS011;67888;50.228;7.828;2023-02-26T05:07:46;5.03;;;1.90;;
78589;SDS011;67888;50.228;7.828;2023-02-26T05:12:46;5.63;;;1.80;;
78589;SDS011;67888;50.228;7.828;2023-02-26T05:17:47;6.43;;;2.07;;
78589;SDS011;67888;50.228;7.828;2023-02-26T05:22:47;6.07;;;1.77;;
78589;SDS011;67888;50.228;7.828;2023-02-26T05:27:47;5.37;;;1.60;;
78589;SDS011;67888;50.228;7.828;2023-02-26T05:32:49;7.10;;;1.63;;
78589;SDS011;67888;50.228;7.828;2023-02-26T05:37:49;4.60;;;1.43;;
78589;SDS011;67888;50.228;7.828;2023-02-26T05:42:50;6.38;;;2.05;;
78589;SDS011;67888;50.228;7.828;2023-02-26T05:47:51;5.93;;;2.30;;
78589;SDS011;67888;50.228;7.828;2023-02-26T05:52:51;7.80;;;1.93;;
78589;SDS011;67888;50.228;7.828;2023-02-26T05:57:52;6.33;;;1.73;;
78589;SDS011;67888;50.228;7.828;2023-02-26T06:02:52;5.22;;;1.70;;
78589;SDS011;67888;50.228;7.828;2023-02-26T06:07:53;6.67;;;2.47;;
78589;SDS011;67888;50.228;7.828;2023-02-26T06:12:53;4.93;;;2.00;;
78589;SDS011;67888;50.228;7.828;2023-02-26T06:17:53;6.20;;;2.10;;
78589;SDS011;67888;50.228;7.828;2023-02-26T06:22:54;6.13;;;2.30;;
78589;SDS011;67888;50.228;7.828;2023-02-26T06:27:54;9.73;;;2.13;;
78589;SDS011;67888;50.228;7.828;2023-02-26T06:32:55;10.07;;;2.73;;
78589;SDS011;67888;50.228;7.828;2023-02-26T06:37:55;8.43;;;2.47;;
78589;SDS011;67888;50.228;7.828;2023-02-26T06:42:57;6.45;;;2.38;;
78589;SDS011;67888;50.228;7.828;2023-02-26T06:47:58;6.03;;;2.03;;
78589;SDS011;67888;50.228;7.828;2023-02-26T06:52:58;6.60;;;2.03;;
78589;SDS011;67888;50.228;7.828;2023-02-26T06:57:59;9.80;;;2.70;;
78589;SDS011;67888;50.228;7.828;2023-02-26T07:02:59;6.57;;;2.23;;
78589;SDS011;67888;50.228;7.828;2023-02-26T07:07:59;5.10;;;1.67;;
78589;SDS011;67888;50.228;7.828;2023-02-26T07:13:00;7.80;;;2.20;;
78589;SDS011;67888;50.228;7.828;2023-02-26T07:18:00;6.83;;;2.33;;
78589;SDS011;67888;50.228;7.828;2023-02-26T07:23:01;5.43;;;1.90;;
78589;SDS011;67888;50.228;7.828;2023-02-26T07:28:02;6.20;;;2.10;;
78589;SDS011;67888;50.228;7.828;2023-02-26T07:33:03;7.97;;;2.40;;
78589;SDS011;67888;50.228;7.828;2023-02-26T07:38:04;6.88;;;2.70;;
78589;SDS011;67888;50.228;7.828;2023-02-26T07:43:05;5.97;;;2.33;;
78589;SDS011;67888;50.228;7.828;2023-02-26T07:48:06;7.80;;;2.20;;
78589;SDS011;67888;50.228;7.828;2023-02-26T07:53:06;8.50;;;2.87;;
78589;SDS011;67888;50.228;7.828;2023-02-26T07:58:07;7.20;;;2.23;;
78589;SDS011;67888;50.228;7.828;2023-02-26T08:03:07;6.80;;;2.30;;
78589;SDS011;67888;50.228;7.828;2023-02-26T08:08:08;8.30;;;3.17;;
78589;SDS011;67888;50.228;7.828;2023-02-26T08:13:09;10.95;;;2.90;;
78589;SDS011;67888;50.228;7.828;2023-02-26T08:18:09;6.70;;;2.60;;
78589;SDS011;67888;50.228;7.828;2023-02-26T08:23:10;8.32;;;2.67;;
78589;SDS011;67888;50.228;7.828;2023-02-26T08:28:11;7.33;;;2.20;;
78589;SDS011;67888;50.228;7.828;2023-02-26T08:33:12;7.67;;;2.90;;
78589;SDS011;67888;50.228;7.828;2023-02-26T08:38:12;11.80;;;4.15;;
78589;SDS011;67888;50.228;7.828;2023-02-26T08:43:13;9.17;;;2.93;;
78589;SDS011;67888;50.228;7.828;2023-02-26T08:48:13;7.97;;;2.50;;
78589;SDS011;67888;50.228;7.828;2023-02-26T08:53:14;5.03;;;1.90;;
78589;SDS011;67888;50.228;7.828;2023-02-26T08:58:15;7.22;;;1.90;;
78589;SDS011;67888;50.228;7.828;2023-02-26T09:03:16;5.93;;;1.60;;
78589;SDS011;67888;50.228;7.828;2023-02-26T09:08:16;4.75;;;1.70;;
78589;SDS011;67888;50.228;7.828;2023-02-26T09:13:19;5.47;;;1.40;;
78589;SDS011;67888;50.228;7.828;2023-02-26T09:18:20;8.03;;;2.10;;
78589;SDS011;67888;50.228;7.828;2023-02-26T09:23:20;6.27;;;2.20;;
78589;SDS011;67888;50.228;7.828;2023-02-26T09:28:21;4.87;;;1.97;;
78589;SDS011;67888;50.228;7.828;2023-02-26T09:33:22;4.60;;;1.47;;
78589;SDS011;67888;50.228;7.828;2023-02-26T09:38:23;3.23;;;1.40;;
78589;SDS011;67888;50.228;7.828;2023-02-26T09:48:34;5.00;;;1.58;;
78589;SDS011;67888;50.228;7.828;2023-02-26T09:53:38;9.43;;;2.63;;
78589;SDS011;67888;50.228;7.828;2023-02-26T09:58:40;7.32;;;2.20;;
78589;SDS011;67888;50.228;7.828;2023-02-26T10:09:28;16.50;;;4.43;;
78589;SDS011;67888;50.228;7.828;2023-02-26T10:14:41;10.30;;;3.33;;
78589;SDS011;67888;50.228;7.828;2023-02-26T10:19:53;4.30;;;1.60;;
78589;SDS011;67888;50.228;7.828;2023-02-26T10:25:00;4.03;;;1.65;;
78589;SDS011;67888;50.228;7.828;2023-02-26T10:30:06;4.47;;;1.50;;
78589;SDS011;67888;50.228;7.828;2023-02-26T10:35:16;10.15;;;3.03;;
78589;SDS011;67888;50.228;7.828;2023-02-26T10:40:27;44.90;;;13.77;;
78589;SDS011;67888;50.228;7.828;2023-02-26T10:46:08;6.87;;;2.77;;
78589;SDS011;67888;50.228;7.828;2023-02-26T10:50:59;3.70;;;1.33;;
78589;SDS011;67888;50.228;7.828;2023-02-26T11:01:33;4.03;;;1.60;;
78589;SDS011;67888;50.228;7.828;2023-02-26T11:06:45;4.73;;;1.50;;
78589;SDS011;67888;50.228;7.828;2023-02-26T11:16:55;4.85;;;1.80;;
78589;SDS011;67888;50.228;7.828;2023-02-26T11:21:58;5.63;;;2.33;;
78589;SDS011;67888;50.228;7.828;2023-02-26T11:27:02;5.07;;;1.45;;
78589;SDS011;67888;50.228;7.828;2023-02-26T11:32:09;5.20;;;1.63;;
78589;SDS011;67888;50.228;7.828;2023-02-26T11:37:27;4.73;;;2.07;;
78589;SDS011;67888;50.228;7.828;2023-02-26T11:42:33;3.10;;;1.30;;
78589;SDS011;67888;50.228;7.828;2023-02-26T11:47:37;5.65;;;1.83;;
78589;SDS011;67888;50.228;7.828;2023-02-26T11:52:41;4.47;;;1.20;;
78589;SDS011;67888;50.228;7.828;2023-02-26T11:57:44;2.42;;;1.17;;
78589;SDS011;67888;50.228;7.828;2023-02-26T12:02:45;3.40;;;1.30;;
78589;SDS011;67888;50.228;7.828;2023-02-26T12:07:45;4.43;;;1.70;;
78589;SDS011;67888;50.228;7.828;2023-02-26T12:13:03;3.20;;;1.30;;
78589;SDS011;67888;50.228;7.828;2023-02-26T12:39:09;3.80;;;1.50;;
78589;SDS011;67888;50.228;7.828;2023-02-26T13:06:21;3.87;;;1.60;;
78589;SDS011;67888;50.228;7.828;2023-02-26T13:16:48;4.45;;;1.40;;
78589;SDS011;67888;50.228;7.828;2023-02-26T13:21:58;6.77;;;2.90;;
78589;SDS011;67888;50.228;7.828;2023-02-26T13:27:01;5.97;;;2.30;;
78589;SDS011;67888;50.228;7.828;2023-02-26T13:32:07;4.63;;;1.20;;
78589;SDS011;67888;50.228;7.828;2023-02-26T13:42:44;3.50;;;1.37;;
78589;SDS011;67888;50.228;7.828;2023-02-26T13:48:07;3.53;;;1.33;;
78589;SDS011;67888;50.228;7.828;2023-02-26T13:58:32;4.30;;;1.30;;
78589;SDS011;67888;50.228;7.828;2023-02-26T14:03:40;4.32;;;1.48;;
78589;SDS011;67888;50.228;7.828;2023-02-26T14:08:52;4.35;;;1.90;;
78589;SDS011;67888;50.228;7.828;2023-02-26T14:14:05;4.53;;;1.60;;
78589;SDS011;67888;50.228;7.828;2023-02-26T14:19:23;3.00;;;1.20;;
78589;SDS011;67888;50.228;7.828;2023-02-26T14:24:32;4.40;;;1.50;;
78589;SDS011;67888;50.228;7.828;2023-02-26T14:29:55;3.25;;;1.42;;
78589;SDS011;67888;50.228;7.828;2023-02-26T14:35:09;5.80;;;2.30;;
78589;SDS011;67888;50.228;7.828;2023-02-26T14:40:14;4.10;;;1.50;;
78589;SDS011;67888;50.228;7.828;2023-02-26T15:01:16;7.32;;;3.08;;
78589;SDS011;67888;50.228;7.828;2023-02-26T15:27:52;3.43;;;1.10;;
78589;SDS011;67888;50.228;7.828;2023-02-26T15:32:59;5.25;;;2.33;;
78589;SDS011;67888;50.228;7.828;2023-02-26T15:38:04;4.60;;;1.77;;
78589;SDS011;67888;50.228;7.828;2023-02-26T15:43:05;4.20;;;1.60;;
78589;SDS011;67888;50.228;7.828;2023-02-26T15:48:10;4.63;;;1.63;;
78589;SDS011;67888;50.228;7.828;2023-02-26T15:53:23;3.75;;;1.20;;
78589;SDS011;67888;50.228;7.828;2023-02-26T15:58:34;7.80;;;2.80;;
78589;SDS011;67888;50.228;7.828;2023-02-26T16:03:37;10.20;;;3.43;;
78589;SDS011;67888;50.228;7.828;2023-02-26T16:08:38;3.67;;;1.37;;
78589;SDS011;67888;50.228;7.828;2023-02-26T16:13:39;4.30;;;1.40;;
78589;SDS011;67888;50.228;7.828;2023-02-26T16:18:41;4.90;;;1.30;;
78589;SDS011;67888;50.228;7.828;2023-02-26T16:23:45;4.50;;;1.60;;
78589;SDS011;67888;50.228;7.828;2023-02-26T16:28:51;4.80;;;1.70;;
78589;SDS011;67888;50.228;7.828;2023-02-26T16:49:39;4.13;;;1.23;;
78589;SDS011;67888;50.228;7.828;2023-02-26T16:54:41;6.57;;;2.92;;
78589;SDS011;67888;50.228;7.828;2023-02-26T16:59:48;7.87;;;2.90;;
78589;SDS011;67888;50.228;7.828;2023-02-26T17:04:53;4.18;;;2.00;;
78589;SDS011;67888;50.228;7.828;2023-02-26T17:09:59;4.07;;;1.50;;
78589;SDS011;67888;50.228;7.828;2023-02-26T17:15:26;5.20;;;2.07;;
78589;SDS011;67888;50.228;7.828;2023-02-26T17:20:29;4.43;;;1.35;;
78589;SDS011;67888;50.228;7.828;2023-02-26T17:25:33;3.92;;;1.40;;
78589;SDS011;67888;50.228;7.828;2023-02-26T17:30:35;4.93;;;1.30;;
78589;SDS011;67888;50.228;7.828;2023-02-26T17:35:37;4.03;;;1.37;;
78589;SDS011;67888;50.228;7.828;2023-02-26T17:40:38;4.23;;;1.63;;
78589;SDS011;67888;50.228;7.828;2023-02-26T17:45:39;3.60;;;1.42;;
78589;SDS011;67888;50.228;7.828;2023-02-26T17:55:50;4.70;;;1.53;;
78589;SDS011;67888;50.228;7.828;2023-02-26T18:00:52;3.83;;;1.48;;
78589;SDS011;67888;50.228;7.828;2023-02-26T18:05:53;6.10;;;1.53;;
78589;SDS011;67888;50.228;7.828;2023-02-26T18:10:55;4.72;;;1.30;;
78589;SDS011;67888;50.228;7.828;2023-02-26T18:15:56;4.60;;;1.77;;
78589;SDS011;67888;50.228;7.828;2023-02-26T18:20:58;5.00;;;1.53;;
78589;SDS011;67888;50.228;7.828;2023-02-26T18:25:58;3.47;;;1.30;;
78589;SDS011;67888;50.228;7.828;2023-02-26T18:31:01;4.13;;;1.38;;
78589;SDS011;67888;50.228;7.828;2023-02-26T18:36:08;4.47;;;1.70;;
78589;SDS011;67888;50.228;7.828;2023-02-26T18:41:15;6.38;;;2.20;;
78589;SDS011;67888;50.228;7.828;2023-02-26T18:46:15;3.70;;;1.50;;
78589;SDS011;67888;50.228;7.828;2023-02-26T18:51:16;4.53;;;1.60;;
78589;SDS011;67888;50.228;7.828;2023-02-26T18:56:16;8.70;;;3.08;;
78589;SDS011;67888;50.228;7.828;2023-02-26T19:01:17;5.87;;;1.77;;
78589;SDS011;67888;50.228;7.828;2023-02-26T19:06:17;6.67;;;2.87;;
78589;SDS011;67888;50.228;7.828;2023-02-26T19:11:17;8.47;;;1.70;;
78589;SDS011;67888;50.228;7.828;2023-02-26T19:16:18;4.90;;;1.33;;
78589;SDS011;67888;50.228;7.828;2023-02-26T19:21:21;6.50;;;1.43;;
78589;SDS011;67888;50.228;7.828;2023-02-26T19:26:22;6.40;;;1.90;;
78589;SDS011;67888;50.228;7.828;2023-02-26T19:31:22;14.13;;;6.50;;
78589;SDS011;67888;50.228;7.828;2023-02-26T19:36:23;8.33;;;2.60;;
78589;SDS011;67888;50.228;7.828;2023-02-26T19:41:25;5.23;;;2.00;;
78589;SDS011;67888;50.228;7.828;2023-02-26T19:46:26;5.65;;;1.83;;
78589;SDS011;67888;50.228;7.828;2023-02-26T19:51:26;7.18;;;2.28;;
78589;SDS011;67888;50.228;7.828;2023-02-26T19:56:27;6.03;;;2.17;;
78589;SDS011;67888;50.228;7.828;2023-02-26T20:01:28;6.93;;;2.13;;
78589;SDS011;67888;50.228;7.828;2023-02-26T20:06:29;5.95;;;1.80;;
78589;SDS011;67888;50.228;7.828;2023-02-26T20:11:29;4.03;;;1.20;;
78589;SDS011;67888;50.228;7.828;2023-02-26T20:16:33;5.03;;;1.60;;
78589;SDS011;67888;50.228;7.828;2023-02-26T20:21:33;5.87;;;1.43;;
78589;SDS011;67888;50.228;7.828;2023-02-26T20:26:34;5.90;;;1.50;;
78589;SDS011;67888;50.228;7.828;2023-02-26T20:31:36;5.75;;;1.50;;
78589;SDS011;67888;50.228;7.828;2023-02-26T20:36:37;6.00;;;1.63;;
78589;SDS011;67888;50.228;7.828;2023-02-26T20:41:38;6.63;;;2.13;;
78589;SDS011;67888;50.228;7.828;2023-02-26T20:46:39;6.50;;;2.10;;
78589;SDS011;67888;50.228;7.828;2023-02-26T20:51:40;4.47;;;1.30;;
78589;SDS011;67888;50.228;7.828;2023-02-26T20:56:42;4.68;;;1.55;;
78589;SDS011;67888;50.228;7.828;2023-02-26T21:01:48;4.95;;;1.67;;
78589;SDS011;67888;50.228;7.828;2023-02-26T21:06:52;5.63;;;1.87;;
78589;SDS011;67888;50.228;7.828;2023-02-26T21:11:52;6.93;;;2.00;;
78589;SDS011;67888;50.228;7.828;2023-02-26T21:16:53;6.10;;;2.20;;
78589;SDS011;67888;50.228;7.828;2023-02-26T21:21:56;7.35;;;3.05;;
78589;SDS011;67888;50.228;7.828;2023-02-26T21:26:57;5.70;;;2.73;;
78589;SDS011;67888;50.228;7.828;2023-02-26T21:31:58;7.80;;;2.90;;
78589;SDS011;67888;50.228;7.828;2023-02-26T21:37:03;10.80;;;3.58;;
78589;SDS011;67888;50.228;7.828;2023-02-26T21:42:05;10.15;;;3.80;;
78589;SDS011;67888;50.228;7.828;2023-02-26T21:47:07;10.13;;;3.37;;
78589;SDS011;67888;50.228;7.828;2023-02-26T21:52:09;9.13;;;3.50;;
78589;SDS011;67888;50.228;7.828;2023-02-26T21:57:10;15.33;;;5.50;;
78589;SDS011;67888;50.228;7.828;2023-02-26T22:02:10;17.57;;;6.97;;
78589;SDS011;67888;50.228;7.828;2023-02-26T22:07:11;21.87;;;8.30;;
78589;SDS011;67888;50.228;7.828;2023-02-26T22:12:12;20.20;;;7.40;;
78589;SDS011;67888;50.228;7.828;2023-02-26T22:17:12;28.20;;;11.33;;
78589;SDS011;67888;50.228;7.828;2023-02-26T22:22:13;27.20;;;11.05;;
78589;SDS011;67888;50.228;7.828;2023-02-26T22:27:15;22.83;;;9.63;;
78589;SDS011;67888;50.228;7.828;2023-02-26T22:32:16;37.10;;;16.43;;
78589;SDS011;67888;50.228;7.828;2023-02-26T22:37:16;36.83;;;16.37;;
78589;SDS011;67888;50.228;7.828;2023-02-26T22:42:18;32.30;;;13.20;;
78589;SDS011;67888;50.228;7.828;2023-02-26T22:47:18;31.93;;;13.03;;
78589;SDS011;67888;50.228;7.828;2023-02-26T22:52:19;33.92;;;13.70;;
78589;SDS011;67888;50.228;7.828;2023-02-26T22:57:20;31.20;;;13.83;;
78589;SDS011;67888;50.228;7.828;2023-02-26T23:02:20;23.27;;;10.53;;
78589;SDS011;67888;50.228;7.828;2023-02-26T23:07:21;12.83;;;5.07;;
78589;SDS011;67888;50.228;7.828;2023-02-26T23:12:22;9.13;;;3.70;;
78589;SDS011;67888;50.228;7.828;2023-02-26T23:17:22;11.80;;;3.20;;
78589;SDS011;67888;50.228;7.828;2023-02-26T23:22:23;13.07;;;5.00;;
78589;SDS011;67888;50.228;7.828;2023-02-26T23:27:23;13.10;;;5.27;;
78589;SDS011;67888;50.228;7.828;2023-02-26T23:32:24;14.33;;;5.67;;
78589;SDS011;67888;50.228;7.828;2023-02-26T23:37:24;13.30;;;5.07;;
78589;SDS011;67888;50.228;7.828;2023-02-26T23:42:24;10.35;;;3.63;;
78589;SDS011;67888;50.228;7.828;2023-02-26T23:47:25;11.27;;;3.33;;
78589;SDS011;67888;50.228;7.828;2023-02-26T23:52:25;13.20;;;5.23;;
78589;SDS011;67888;50.228;7.828;2023-02-26T23:57:26;17.37;;;6.00;;
